Metlakatla, AK

8:56 PM AKDT on September 30, 2014 (GMT -0800)
Metlakatla | Change Station
CLOSE
Current Station
Airport
Location: Metlakatla,
Elevation: 0 ft
Nearby Weather Stations

Elev 0 ft 55.13 °N, 131.58 °W | Updated 20 minutes ago

Mostly Cloudy
Mostly Cloudy
52 °F
Feels Like 52 °F
N
7
Wind Variable Wind from SSW

Today
High -- | Low -- °F
--% Chance of Precip.
Yesterday
High -- | Low -- °F
Precip. -- in
6:47 AM 6:24 PM
Waxing Crescent, 43% visible
Pressure 30.06 in
Visibility 10.0 miles
Clouds Scattered Clouds 7000 ft
Mostly Cloudy 7500 ft
Dew Point 43 °F
Humidity 71%
Rainfall 0.03 in
Snow Depth 3 in , 3 in , 0 in
UV 0 out of 12
Pollen Not available.
Air Quality Not available.
Flu Activity Not available.
METAR PAMM 010436Z AUTO 21006KT 10SM SCT070 BKN075 11/06 A3006 RMK AO1

More Conditions Fewer Conditions

Pressure 30.06 in
Visibility 10.0 miles
Clouds Scattered Clouds 7000 ft
Mostly Cloudy 7500 ft
Dew Point 43 °F
Humidity 71%
Rainfall 0.03 in
Snow Depth 3 in , 3 in , 0 in
UV 0 out of 12
Pollen Not available.
Air Quality Not available.
Flu Activity Not available.
METAR PAMM 010436Z AUTO 21006KT 10SM SCT070 BKN075 11/06 A3006 RMK AO1

More Conditions Fewer Conditions

10-Day Weather Forecast

Almanac

Astronomy

Sep. 30, 2014 Rise Set
Actual Time 6:47 AM AKDT 6:24 PM AKDT
Civil Twilight 6:11 AM AKDT 7:00 PM AKDT
Nautical Twilight 5:28 AM AKDT 7:42 PM AKDT
Astronomical Twilight 4:44 AM AKDT 8:26 PM AKDT
Moon 1:47 PM AKDT (9/30) 10:16 PM AKDT (9/30)
Length of Visible Light 12h 49m
Length of Day
11h 36m
Tomorrow will be 4m 27s shorter.
Waxing Crescent, 43% of the Moon is Illuminated
Oct 1
Waxing Crescent
Oct 1
First Quarter
Oct 8
Full
Oct 15
Last Quarter
Oct 23
New

Yesterday's Extremes

State Highs State Lows

Community

WunderPhotos

Upload Photos

1,757,847 photos uploaded!

Nearby

Snow Depth

Station Depth Elevation
Mt. Ryan 3 in 2800 ft
MF Bradley River 3 in 2300 ft
Mcneil Canyon 0 in 1320 ft
Gobblers Knob 4 in 2030 ft
Fort Yukon 0 in 430 ft

Earthquake Activity

City Distance Mag. Time & Date
No recent earthquake activity has been reported nearby.
Minimum magnitude displayed is 2.5.

Coastal Water Temperatures

Place Temperature
No Stations Reporting

Nearby Weather Stations